createdAt,value
2018-03-30T00:00:49.849Z,67.50
2018-03-30T00:03:18.112Z,67.40
2018-03-30T00:05:46.555Z,67.35
2018-03-30T00:08:14.871Z,67.23
2018-03-30T00:10:48.759Z,67.28
2018-03-30T00:13:17.019Z,67.21
2018-03-30T00:15:45.334Z,67.35
2018-03-30T00:18:13.609Z,67.36
2018-03-30T00:20:42.605Z,67.19
2018-03-30T00:23:10.885Z,67.33
2018-03-30T00:25:39.233Z,67.23
2018-03-30T00:28:07.507Z,67.36
2018-03-30T00:30:35.861Z,67.29
2018-03-30T00:33:04.128Z,67.20
2018-03-30T00:35:32.441Z,66.90
2018-03-30T00:38:00.708Z,67.14
2018-03-30T00:40:29.149Z,67.17
2018-03-30T00:42:57.404Z,67.20
2018-03-30T00:45:25.717Z,66.89
2018-03-30T00:47:54.054Z,67.52
2018-03-30T00:50:22.324Z,67.43
2018-03-30T00:52:50.642Z,67.68
2018-03-30T00:55:18.937Z,67.87
2018-03-30T00:57:47.282Z,67.71
2018-03-30T01:00:15.865Z,67.57
2018-03-30T01:02:44.204Z,67.56
2018-03-30T01:05:12.816Z,67.59
2018-03-30T01:07:41.096Z,67.49
2018-03-30T01:10:09.373Z,67.81
2018-03-30T01:12:37.656Z,67.96
2018-03-30T01:15:05.915Z,68.42
2018-03-30T01:17:34.221Z,68.24
2018-03-30T01:20:03.169Z,68.14
2018-03-30T01:22:31.421Z,68.26
2018-03-30T01:24:59.715Z,68.21
2018-03-30T01:27:28.002Z,68.17
2018-03-30T01:29:56.277Z,68.16
2018-03-30T01:32:24.570Z,67.96
2018-03-30T01:34:52.844Z,68.06
2018-03-30T01:37:21.168Z,68.10
2018-03-30T01:39:49.444Z,68.08
2018-03-30T01:42:18.048Z,68.24
2018-03-30T01:44:46.332Z,68.20
2018-03-30T01:47:14.590Z,68.33
2018-03-30T01:49:42.867Z,68.39
2018-03-30T01:52:11.802Z,68.48
2018-03-30T01:54:40.102Z,68.68
2018-03-30T01:57:08.352Z,68.83
2018-03-30T01:59:36.657Z,68.82
2018-03-30T02:02:04.921Z,68.79
2018-03-30T02:04:33.195Z,68.74
2018-03-30T02:07:01.476Z,68.72
2018-03-30T02:09:29.781Z,69.13
2018-03-30T02:11:58.072Z,69.28
2018-03-30T02:14:26.355Z,69.81
2018-03-30T02:16:54.616Z,69.57
2018-03-30T02:19:22.904Z,69.46
2018-03-30T02:21:51.185Z,69.47
2018-03-30T02:24:19.486Z,69.25
2018-03-30T02:26:47.756Z,69.27
2018-03-30T02:29:16.056Z,69.21
2018-03-30T02:31:44.324Z,69.72
2018-03-30T02:34:13.287Z,70.21
2018-03-30T02:36:41.565Z,70.39
2018-03-30T02:39:09.889Z,70.54
2018-03-30T02:41:38.151Z,70.75
2018-03-30T02:44:06.464Z,70.66
2018-03-30T02:46:34.753Z,71.10
2018-03-30T02:49:03.032Z,70.81
2018-03-30T02:51:31.351Z,70.45
2018-03-30T02:53:59.621Z,70.52
2018-03-30T02:56:27.902Z,70.59
2018-03-30T02:58:56.190Z,70.31
2018-03-30T03:01:24.509Z,70.04
2018-03-30T03:03:52.770Z,70.00
2018-03-30T03:06:21.117Z,70.27
2018-03-30T03:08:49.474Z,70.70
2018-03-30T03:11:17.774Z,70.91
2018-03-30T03:13:46.059Z,70.71
2018-03-30T03:16:14.400Z,71.07
2018-03-30T03:18:42.730Z,70.83
2018-03-30T03:21:11.050Z,70.78
2018-03-30T03:23:39.293Z,71.25
2018-03-30T03:26:07.641Z,71.23
2018-03-30T03:28:35.992Z,71.09
2018-03-30T03:31:05.085Z,71.24
2018-03-30T03:33:33.333Z,71.30
2018-03-30T03:36:01.665Z,71.76
2018-03-30T03:38:29.960Z,71.24
2018-03-30T03:40:58.742Z,71.62
2018-03-30T03:43:27.031Z,72.04
2018-03-30T03:45:55.300Z,72.03
2018-03-30T03:48:23.574Z,72.14
2018-03-30T03:50:51.853Z,72.28
2018-03-30T03:53:20.141Z,72.33
2018-03-30T03:55:48.396Z,72.15
2018-03-30T03:58:16.692Z,71.76
2018-03-30T04:00:44.951Z,71.75
2018-03-30T04:03:13.235Z,71.93
2018-03-30T04:05:41.507Z,72.60
2018-03-30T04:08:09.798Z,72.61
2018-03-30T04:10:38.067Z,72.53
2018-03-30T04:13:06.411Z,73.04
2018-03-30T04:15:34.718Z,72.87
2018-03-30T04:18:02.995Z,72.58
2018-03-30T04:20:31.267Z,72.53
2018-03-30T04:22:59.719Z,72.36
2018-03-30T04:25:28.041Z,72.67
2018-03-30T04:27:56.344Z,72.39
2018-03-30T04:30:24.628Z,72.60
2018-03-30T04:32:52.962Z,72.69
2018-03-30T04:35:21.263Z,72.52
2018-03-30T04:37:49.578Z,72.66
2018-03-30T04:40:17.920Z,72.89
2018-03-30T04:42:46.171Z,73.17
2018-03-30T04:45:14.480Z,72.72
2018-03-30T04:47:42.736Z,72.11
2018-03-30T04:50:11.558Z,72.01
2018-03-30T04:52:39.825Z,72.43
2018-03-30T04:55:08.181Z,72.79
2018-03-30T04:57:36.505Z,73.20
2018-03-30T05:00:04.848Z,72.98
2018-03-30T05:02:33.124Z,72.87
2018-03-30T05:05:01.420Z,73.11
2018-03-30T05:07:29.710Z,74.03
2018-03-30T05:09:57.975Z,74.25
2018-03-30T05:12:26.254Z,74.16
2018-03-30T05:14:54.578Z,73.93
2018-03-30T05:17:22.841Z,73.80
2018-03-30T05:19:51.116Z,73.51
2018-03-30T05:22:19.379Z,73.58
2018-03-30T05:24:47.833Z,73.24
2018-03-30T05:27:16.095Z,73.19
2018-03-30T05:29:44.392Z,73.00
2018-03-30T05:32:13.872Z,73.22
2018-03-30T05:34:42.171Z,73.52
2018-03-30T05:37:10.448Z,73.47
2018-03-30T05:39:38.738Z,73.67
2018-03-30T05:42:07.029Z,73.24
2018-03-30T05:44:35.364Z,72.88
2018-03-30T05:47:04.678Z,72.47
2018-03-30T05:49:32.941Z,72.29
2018-03-30T05:52:01.279Z,72.03
2018-03-30T05:54:29.506Z,72.46
2018-03-30T05:56:57.795Z,72.70
2018-03-30T05:59:26.066Z,72.76
2018-03-30T06:01:54.379Z,72.71
2018-03-30T06:04:22.645Z,72.58
2018-03-30T06:06:50.977Z,72.41
2018-03-30T06:09:19.263Z,73.04
2018-03-30T06:11:47.568Z,72.51
2018-03-30T06:14:15.868Z,72.34
2018-03-30T06:16:44.200Z,72.38
2018-03-30T06:19:12.541Z,73.24
2018-03-30T06:21:40.745Z,73.45
2018-03-30T06:24:09.136Z,73.01
2018-03-30T06:26:37.432Z,72.74
2018-03-30T06:29:05.688Z,72.75
2018-03-30T06:31:33.976Z,72.82
2018-03-30T06:34:02.347Z,72.76
2018-03-30T06:36:30.624Z,72.21
2018-03-30T06:38:58.930Z,72.30
2018-03-30T06:41:27.204Z,72.07
2018-03-30T06:43:55.501Z,71.93
2018-03-30T06:46:23.789Z,71.89
2018-03-30T06:48:52.079Z,71.75
2018-03-30T06:51:20.354Z,71.77
2018-03-30T06:53:48.625Z,71.55
2018-03-30T06:56:16.844Z,71.43
2018-03-30T06:58:45.138Z,71.43
2018-03-30T07:01:13.384Z,71.48
2018-03-30T07:03:41.673Z,71.56
2018-03-30T07:06:09.940Z,71.39
2018-03-30T07:08:38.221Z,71.37
2018-03-30T07:11:07.210Z,71.78
2018-03-30T07:13:35.628Z,71.47
2018-03-30T07:16:03.922Z,71.22
2018-03-30T07:18:32.228Z,71.13
2018-03-30T07:21:00.507Z,71.13
2018-03-30T07:23:28.796Z,71.00
2018-03-30T07:25:57.056Z,70.83
2018-03-30T07:28:27.007Z,70.75
2018-03-30T07:30:55.346Z,70.28
2018-03-30T07:33:23.640Z,69.73
2018-03-30T07:35:52.421Z,69.28
2018-03-30T07:38:20.699Z,69.07
2018-03-30T07:40:48.998Z,69.04
2018-03-30T07:43:17.288Z,68.63
2018-03-30T07:45:45.592Z,68.15
2018-03-30T07:48:13.872Z,67.48
2018-03-30T07:50:42.187Z,67.03
2018-03-30T07:53:10.480Z,66.73
2018-03-30T07:55:39.539Z,66.73
2018-03-30T07:58:07.836Z,66.03
2018-03-30T08:00:36.155Z,65.64
2018-03-30T08:03:05.108Z,65.86
2018-03-30T08:05:33.416Z,65.90
2018-03-30T08:08:01.682Z,65.63
2018-03-30T08:10:30.021Z,65.20
2018-03-30T08:12:58.325Z,65.11
2018-03-30T08:15:26.601Z,65.18
2018-03-30T08:17:54.877Z,64.95
2018-03-30T08:20:23.200Z,64.95
2018-03-30T08:22:51.515Z,64.08
2018-03-30T08:25:19.874Z,63.85
2018-03-30T08:27:48.132Z,62.82
2018-03-30T08:30:17.216Z,62.41
2018-03-30T08:32:45.552Z,62.16
2018-03-30T08:35:14.416Z,61.77
2018-03-30T08:37:42.718Z,61.66
2018-03-30T08:40:10.996Z,60.81
2018-03-30T08:42:39.304Z,60.88
2018-03-30T08:45:07.623Z,60.26
2018-03-30T08:47:35.934Z,59.69
2018-03-30T08:50:04.215Z,59.56
2018-03-30T08:52:32.545Z,59.06
2018-03-30T08:55:00.813Z,58.86
2018-03-30T08:57:29.170Z,59.03
2018-03-30T08:59:57.479Z,58.90
2018-03-30T09:02:25.759Z,59.00
2018-03-30T09:04:54.036Z,58.63
2018-03-30T09:07:22.396Z,58.50
2018-03-30T09:09:50.672Z,57.71
2018-03-30T09:12:18.977Z,57.76
2018-03-30T09:14:47.310Z,57.47
2018-03-30T09:17:15.614Z,57.04
2018-03-30T09:19:43.890Z,56.83
2018-03-30T09:22:12.244Z,56.37
2018-03-30T09:24:40.545Z,55.95
2018-03-30T09:27:08.907Z,55.46
2018-03-30T09:29:37.122Z,55.06
2018-03-30T09:32:05.479Z,54.72
2018-03-30T09:34:33.759Z,54.34
2018-03-30T09:37:02.137Z,53.72
2018-03-30T09:39:30.427Z,53.46
2018-03-30T09:41:58.728Z,53.07
2018-03-30T09:44:27.080Z,52.79
2018-03-30T09:46:55.343Z,52.64
2018-03-30T09:49:23.656Z,51.58
2018-03-30T09:51:51.908Z,50.95
2018-03-30T09:54:20.264Z,50.68
2018-03-30T09:56:48.560Z,50.83
2018-03-30T09:59:16.902Z,51.06
2018-03-30T10:01:56.207Z,49.95
2018-03-30T10:04:28.674Z,49.93
2018-03-30T10:06:57.628Z,49.39
2018-03-30T10:09:25.981Z,48.88
2018-03-30T10:11:54.330Z,49.08
2018-03-30T10:14:22.658Z,48.68
2018-03-30T10:16:51.120Z,47.89
2018-03-30T10:19:19.479Z,47.72
2018-03-30T10:21:47.812Z,47.41
2018-03-30T10:24:16.161Z,46.99
2018-03-30T10:26:45.223Z,46.84
2018-03-30T10:29:13.556Z,44.60
2018-03-30T10:31:41.833Z,42.99
2018-03-30T10:34:10.144Z,42.34
2018-03-30T10:36:39.344Z,42.07
2018-03-30T10:39:08.588Z,41.18
2018-03-30T10:41:37.800Z,41.53
2018-03-30T10:44:06.265Z,40.81
2018-03-30T10:46:34.693Z,40.96
2018-03-30T10:49:02.924Z,41.17
2018-03-30T10:51:31.260Z,41.49
2018-03-30T10:53:59.702Z,39.73
2018-03-30T10:56:28.040Z,40.67
2018-03-30T10:58:56.323Z,39.93
2018-03-30T11:01:24.645Z,40.70
2018-03-30T11:03:53.072Z,39.60
2018-03-30T11:06:21.324Z,39.91
2018-03-30T11:08:49.643Z,39.98
2018-03-30T11:11:18.985Z,40.16
2018-03-30T11:13:47.264Z,39.89
2018-03-30T11:16:15.595Z,39.44
2018-03-30T11:18:43.872Z,38.55
2018-03-30T11:21:12.202Z,38.78
2018-03-30T11:23:40.481Z,38.11
2018-03-30T11:26:08.847Z,38.26
2018-03-30T11:28:37.168Z,38.56
2018-03-30T11:31:05.461Z,37.88
2018-03-30T11:33:33.715Z,38.30
2018-03-30T11:36:02.068Z,37.77
2018-03-30T11:38:30.373Z,38.17
2018-03-30T11:40:58.683Z,38.72
2018-03-30T11:43:27.477Z,38.72
2018-03-30T11:45:56.602Z,38.42
2018-03-30T11:48:24.897Z,38.35
2018-03-30T11:50:53.225Z,39.36
2018-03-30T11:53:21.510Z,40.12
2018-03-30T11:55:50.383Z,40.67
2018-03-30T11:58:18.654Z,41.20
2018-03-30T12:00:46.909Z,41.84
2018-03-30T12:03:15.250Z,42.49
2018-03-30T12:05:43.556Z,42.86
2018-03-30T12:08:11.876Z,43.35
2018-03-30T12:10:40.111Z,43.83
2018-03-30T12:13:08.420Z,44.07
2018-03-30T12:15:36.782Z,44.32
2018-03-30T12:18:05.094Z,44.45
2018-03-30T12:20:33.370Z,44.85
2018-03-30T12:23:01.674Z,45.17
2018-03-30T12:25:29.951Z,45.41
2018-03-30T12:27:58.243Z,45.58
2018-03-30T12:30:26.722Z,45.90
2018-03-30T12:32:55.004Z,46.39
2018-03-30T12:35:23.496Z,46.78
2018-03-30T12:37:52.671Z,47.05
2018-03-30T12:40:20.970Z,47.28
2018-03-30T12:42:49.272Z,47.80
2018-03-30T12:45:18.422Z,48.48
2018-03-30T12:47:46.768Z,48.96
2018-03-30T12:50:15.067Z,49.33
2018-03-30T12:52:43.339Z,49.48
2018-03-30T12:55:11.721Z,49.70
2018-03-30T12:57:39.994Z,51.28
2018-03-30T13:00:09.109Z,52.00
2018-03-30T13:02:37.391Z,55.29
2018-03-30T13:05:05.829Z,52.15
2018-03-30T13:07:34.139Z,53.82
2018-03-30T13:10:02.472Z,55.21
2018-03-30T13:12:30.780Z,55.97
2018-03-30T13:14:59.468Z,56.57
2018-03-30T13:17:27.769Z,58.98
2018-03-30T13:19:56.125Z,59.17
2018-03-30T13:22:24.414Z,60.28
2018-03-30T13:24:52.771Z,61.62
2018-03-30T13:27:21.012Z,61.93
2018-03-30T13:29:49.326Z,63.10
2018-03-30T13:32:17.649Z,63.58
2018-03-30T13:34:45.968Z,64.57
2018-03-30T13:37:15.374Z,64.65
2018-03-30T13:39:43.689Z,66.47
2018-03-30T13:42:13.065Z,66.43
2018-03-30T13:44:41.484Z,67.17
2018-03-30T13:47:09.826Z,66.98
2018-03-30T13:49:38.214Z,66.78
2018-03-30T13:55:09.491Z,67.92
2018-03-30T13:57:45.322Z,68.36
2018-03-30T14:00:18.964Z,67.78
2018-03-30T14:02:50.646Z,67.53
2018-03-30T14:05:26.642Z,67.92
2018-03-30T14:07:57.409Z,68.19
2018-03-30T14:10:36.333Z,68.29
2018-03-30T14:13:05.416Z,67.37
2018-03-30T14:15:33.687Z,68.17
2018-03-30T14:18:07.417Z,66.93
2018-03-30T14:20:36.508Z,67.34
2018-03-30T14:23:06.447Z,68.74
2018-03-30T14:25:38.788Z,69.83
2018-03-30T14:28:07.945Z,68.95
2018-03-30T14:30:48.840Z,68.38
2018-03-30T14:33:17.964Z,67.92
2018-03-30T14:35:52.641Z,69.53
2018-03-30T14:38:26.291Z,67.49
2018-03-30T14:40:54.549Z,65.96
2018-03-30T14:43:27.191Z,66.94
2018-03-30T14:46:01.877Z,66.61
2018-03-30T14:48:39.963Z,65.80
2018-03-30T14:51:16.037Z,67.85
2018-03-30T14:53:54.940Z,70.06
2018-03-30T14:59:37.416Z,69.95
2018-03-30T15:02:13.564Z,70.64
2018-03-30T15:04:46.305Z,72.29
2018-03-30T15:07:30.217Z,72.92
2018-03-30T15:12:56.916Z,75.41
2018-03-30T15:15:49.109Z,75.35
2018-03-30T15:18:18.626Z,75.34
2018-03-30T15:20:49.745Z,76.11
2018-03-30T15:23:22.712Z,76.06
2018-03-30T15:25:59.581Z,75.38
2018-03-30T15:28:36.911Z,74.79
2018-03-30T15:31:11.683Z,75.05
2018-03-30T15:33:41.736Z,74.37
2018-03-30T15:36:14.908Z,74.04
2018-03-30T15:38:43.185Z,73.96
2018-03-30T15:41:11.524Z,73.31
2018-03-30T15:43:41.425Z,72.86
2018-03-30T15:46:35.311Z,72.69
2018-03-30T15:49:03.613Z,73.30
2018-03-30T15:51:35.127Z,73.57
2018-03-30T15:54:02.915Z,73.80
2018-03-30T15:56:32.172Z,74.33
2018-03-30T15:59:00.882Z,74.27
2018-03-30T16:01:29.266Z,73.89
2018-03-30T16:03:57.524Z,74.79
2018-03-30T16:06:25.828Z,75.23
2018-03-30T16:08:54.126Z,76.46
2018-03-30T16:11:28.683Z,76.49
2018-03-30T16:13:57.012Z,76.90
2018-03-30T16:16:25.340Z,76.57
2018-03-30T16:18:56.017Z,76.36
2018-03-30T16:21:23.836Z,76.59
2018-03-30T16:23:51.616Z,77.51
2018-03-30T16:26:20.999Z,78.40
2018-03-30T16:28:48.740Z,79.28
2018-03-30T16:31:16.493Z,78.66
2018-03-30T16:33:44.252Z,78.64
2018-03-30T16:36:12.060Z,78.70
2018-03-30T16:41:13.970Z,78.93
2018-03-30T16:43:41.753Z,78.77
2018-03-30T16:46:09.655Z,78.24
2018-03-30T16:48:37.457Z,77.92
2018-03-30T16:51:05.195Z,77.13
2018-03-30T16:53:32.954Z,76.58
2018-03-30T16:56:00.687Z,76.29
2018-03-30T16:58:28.518Z,77.47
2018-03-30T17:00:56.239Z,77.98
2018-03-30T17:03:24.015Z,78.07
2018-03-30T17:05:51.790Z,79.16
2018-03-30T17:08:19.614Z,78.76
2018-03-30T17:10:47.378Z,78.19
2018-03-30T17:13:15.164Z,78.22
2018-03-30T17:15:42.896Z,79.85
2018-03-30T17:18:10.661Z,80.60
2018-03-30T17:20:38.401Z,81.42
2018-03-30T17:23:06.191Z,81.56
2018-03-30T17:25:34.902Z,81.33
2018-03-30T17:28:04.509Z,80.86
2018-03-30T17:30:32.489Z,80.21
2018-03-30T17:33:00.249Z,79.95
2018-03-30T17:35:28.398Z,79.42
2018-03-30T17:37:56.153Z,79.25
2018-03-30T17:40:23.901Z,79.28
2018-03-30T17:42:51.641Z,79.09
2018-03-30T17:45:19.802Z,79.54
2018-03-30T17:47:47.573Z,79.86
2018-03-30T17:50:15.333Z,79.63
2018-03-30T17:52:43.114Z,79.93
2018-03-30T17:55:10.849Z,79.91
2018-03-30T17:57:38.635Z,80.80
2018-03-30T18:00:06.442Z,80.41
2018-03-30T18:02:34.287Z,79.60
2018-03-30T18:05:02.132Z,79.01
2018-03-30T18:07:29.869Z,78.79
2018-03-30T18:09:57.741Z,78.56
2018-03-30T18:12:25.465Z,78.40
2018-03-30T18:14:53.612Z,78.68
2018-03-30T18:17:21.341Z,78.69
2018-03-30T18:19:49.145Z,79.26
2018-03-30T18:22:16.887Z,79.26
2018-03-30T18:24:46.191Z,79.55
2018-03-30T18:27:14.067Z,79.29
2018-03-30T18:29:42.202Z,79.26
2018-03-30T18:32:10.009Z,79.33
2018-03-30T18:34:37.764Z,78.94
2018-03-30T18:37:05.674Z,78.74
2018-03-30T18:39:33.365Z,78.77
2018-03-30T18:42:01.509Z,78.93
2018-03-30T18:44:29.331Z,78.98
2018-03-30T18:46:57.323Z,79.01
2018-03-30T18:49:25.071Z,79.05
2018-03-30T18:51:53.188Z,78.53
2018-03-30T18:54:21.060Z,78.21
2018-03-30T18:56:48.832Z,78.27
2018-03-30T18:59:16.580Z,78.47
2018-03-30T19:01:44.370Z,78.00
2018-03-30T19:04:12.108Z,79.69
2018-03-30T19:06:39.896Z,80.83
2018-03-30T19:09:07.789Z,80.09
2018-03-30T19:11:35.552Z,76.20
2018-03-30T19:14:04.350Z,75.07
2018-03-30T19:16:32.135Z,73.81
2018-03-30T19:18:59.853Z,71.33
2018-03-30T19:21:27.648Z,73.73
2018-03-30T19:23:55.350Z,69.57
2018-03-30T19:26:23.138Z,70.08
2018-03-30T19:28:50.902Z,73.57
2018-03-30T19:31:18.619Z,71.75
2018-03-30T19:33:46.399Z,68.16
2018-03-30T19:36:14.140Z,70.97
2018-03-30T19:38:41.883Z,71.94
2018-03-30T19:41:09.674Z,72.92
2018-03-30T19:43:37.371Z,70.71
2018-03-30T19:46:05.226Z,73.81
2018-03-30T19:48:32.991Z,72.65
2018-03-30T19:51:00.746Z,67.36
2018-03-30T19:53:28.516Z,70.19
2018-03-30T19:55:56.365Z,68.36
2018-03-30T19:58:24.139Z,67.13
2018-03-30T20:00:51.899Z,65.08
2018-03-30T20:03:19.686Z,65.66
2018-03-30T20:05:47.429Z,65.68
2018-03-30T20:08:15.198Z,66.52
2018-03-30T20:10:42.957Z,65.81
2018-03-30T20:13:10.713Z,64.98
2018-03-30T20:15:38.456Z,64.09
2018-03-30T20:18:06.255Z,64.50
2018-03-30T20:20:34.174Z,63.01
2018-03-30T20:23:01.931Z,66.92
2018-03-30T20:25:29.705Z,70.01
2018-03-30T20:27:57.591Z,71.87
2018-03-30T20:30:25.300Z,72.94
2018-03-30T20:32:53.067Z,73.74
2018-03-30T20:35:20.834Z,74.94
2018-03-30T20:37:48.571Z,75.59
2018-03-30T20:40:16.351Z,76.02
2018-03-30T20:42:44.140Z,76.37
2018-03-30T20:45:12.488Z,76.68
2018-03-30T20:47:40.246Z,76.30
2018-03-30T20:50:08.021Z,76.90
2018-03-30T20:52:35.792Z,77.19
2018-03-30T20:55:04.622Z,77.51
2018-03-30T20:57:32.341Z,77.63
2018-03-30T21:00:00.153Z,77.48
2018-03-30T21:02:27.939Z,76.99
2018-03-30T21:04:56.244Z,76.92
2018-03-30T21:07:23.998Z,76.97
2018-03-30T21:09:51.758Z,77.16
2018-03-30T21:12:20.480Z,77.55
2018-03-30T21:14:48.248Z,77.99
2018-03-30T21:17:16.013Z,78.16
2018-03-30T21:19:43.769Z,78.42
2018-03-30T21:22:12.008Z,78.94
2018-03-30T21:24:39.755Z,79.03
2018-03-30T21:27:07.682Z,78.84
2018-03-30T21:29:35.518Z,78.65
2018-03-30T21:32:04.372Z,78.41
2018-03-30T21:34:32.194Z,78.55
2018-03-30T21:36:59.997Z,78.62
2018-03-30T21:39:27.765Z,78.64
2018-03-30T21:41:55.484Z,78.53
2018-03-30T21:44:23.225Z,77.59
2018-03-30T21:46:50.982Z,77.04
2018-03-30T21:49:18.787Z,77.17
2018-03-30T21:51:46.587Z,76.90
2018-03-30T21:54:14.337Z,76.05
2018-03-30T21:56:42.116Z,76.00
2018-03-30T21:59:09.879Z,76.61
2018-03-30T22:01:37.915Z,75.96
2018-03-30T22:04:05.731Z,76.27
2018-03-30T22:06:33.539Z,76.23
2018-03-30T22:09:01.283Z,76.45
2018-03-30T22:11:29.061Z,76.97
2018-03-30T22:13:56.866Z,77.26
2018-03-30T22:16:24.638Z,77.32
2018-03-30T22:18:52.380Z,77.52
2018-03-30T22:21:20.799Z,77.08
2018-03-30T22:23:48.575Z,76.86
2018-03-30T22:26:16.320Z,76.95
2018-03-30T22:28:44.074Z,76.98
2018-03-30T22:31:11.881Z,77.14
2018-03-30T22:33:39.606Z,76.80
2018-03-30T22:36:07.376Z,77.24
2018-03-30T22:38:35.120Z,77.53
2018-03-30T22:41:02.909Z,77.79
2018-03-30T22:43:30.724Z,77.82
2018-03-30T22:45:58.872Z,77.55
2018-03-30T22:48:27.207Z,77.14
2018-03-30T22:50:54.941Z,77.23
2018-03-30T22:53:22.703Z,77.99
2018-03-30T22:55:50.518Z,78.28
2018-03-30T22:58:18.290Z,77.93
2018-03-30T23:00:46.061Z,76.89
2018-03-30T23:03:13.824Z,76.79
2018-03-30T23:05:41.561Z,76.48
2018-03-30T23:08:09.440Z,76.21
2018-03-30T23:10:37.175Z,75.75
2018-03-30T23:13:04.991Z,75.53
2018-03-30T23:15:32.737Z,75.92
2018-03-30T23:18:00.517Z,75.64
2018-03-30T23:20:28.258Z,75.37
2018-03-30T23:22:56.031Z,75.26
2018-03-30T23:25:23.792Z,74.86
2018-03-30T23:27:51.568Z,75.09
2018-03-30T23:30:19.409Z,75.01
2018-03-30T23:32:47.161Z,75.40
2018-03-30T23:35:14.890Z,75.40
2018-03-30T23:37:42.792Z,75.57
2018-03-30T23:40:10.661Z,75.36
2018-03-30T23:42:38.617Z,75.54
2018-03-30T23:45:06.394Z,75.36
2018-03-30T23:47:34.134Z,75.43
2018-03-30T23:50:01.908Z,75.53
2018-03-30T23:52:29.685Z,75.58
2018-03-30T23:54:57.486Z,75.80
2018-03-30T23:57:25.227Z,75.64
2018-03-30T23:59:52.988Z,75.66
